Time;durP1;ratioP1;P1;durP2;ratioP2;P2;SDS_P1;SDS_P2;PMS_P1;PMS_P2;Temp;Humidity;BMP_temperature;BMP_pressure;BME280_temperature;BME280_humidity;BME280_pressure;Samples;Min_cycle;Max_cycle;Signal;HPM_P1;HPM_P2
2023/05/04 00:00:07;;;;;;;1.23;1.23;;;;;;;8.82;47.63;102341.19;5022623;27;98417;-79
2023/05/04 00:02:33;;;;;;;3.30;1.67;;;;;;;8.77;47.93;102335.47;5023279;27;97078;-80
2023/05/04 00:04:58;;;;;;;5.00;1.93;;;;;;;8.74;47.73;102350.06;5023415;27;97645;-81
2023/05/04 00:07:24;;;;;;;2.63;1.53;;;;;;;8.68;47.92;102335.38;5025717;27;97018;-80
2023/05/04 00:09:49;;;;;;;1.47;1.37;;;;;;;8.69;48.03;102345.91;5020812;27;96729;-81
2023/05/04 00:12:15;;;;;;;2.33;1.57;;;;;;;8.71;48.03;102332.53;5020643;27;97608;-80
2023/05/04 00:14:41;;;;;;;1.30;1.20;;;;;;;8.72;48.11;102330.53;5023949;27;96891;-80
2023/05/04 00:17:07;;;;;;;1.30;1.20;;;;;;;8.72;48.16;102334.06;5021729;27;97070;-79
2023/05/04 00:19:33;;;;;;;1.60;1.30;;;;;;;8.73;48.03;102337.56;5018464;27;96616;-79
2023/05/04 00:21:59;;;;;;;5.70;1.70;;;;;;;8.72;48.16;102339.53;5025697;27;100153;-80
2023/05/04 00:24:25;;;;;;;2.90;1.90;;;;;;;8.70;48.02;102325.50;5019351;27;96802;-80
2023/05/04 00:26:50;;;;;;;2.30;1.43;;;;;;;8.68;48.21;102330.66;5020784;27;96845;-79
2023/05/04 00:29:15;;;;;;;1.90;1.80;;;;;;;8.66;48.26;102319.34;5022338;27;97390;-80
2023/05/04 00:31:41;;;;;;;1.63;1.53;;;;;;;8.64;48.04;102324.50;5035738;27;99501;-79
2023/05/04 00:34:06;;;;;;;1.73;1.63;;;;;;;8.60;48.22;102318.38;5027374;27;99394;-79
2023/05/04 00:36:32;;;;;;;2.07;1.80;;;;;;;8.57;48.54;102326.69;5020526;27;96761;-80
2023/05/04 00:38:57;;;;;;;1.93;1.30;;;;;;;8.54;48.14;102333.06;5028717;27;97410;-80
2023/05/04 00:41:22;;;;;;;1.20;1.10;;;;;;;8.48;48.32;102327.34;5020343;27;103975;-79
2023/05/04 00:43:48;;;;;;;1.50;1.40;;;;;;;8.43;48.50;102318.88;5018227;27;98721;-79
2023/05/04 00:46:14;;;;;;;2.67;1.67;;;;;;;8.43;48.49;102313.41;5022020;27;97282;-80
2023/05/04 00:48:40;;;;;;;4.50;1.90;;;;;;;8.38;48.62;102325.69;5021081;27;96657;-79
2023/05/04 00:51:06;;;;;;;2.40;2.27;;;;;;;8.37;48.76;102320.59;5021567;27;100334;-79
2023/05/04 00:53:32;;;;;;;5.53;1.90;;;;;;;8.32;48.57;102313.72;5026540;27;99412;-80
2023/05/04 00:55:58;;;;;;;2.10;1.93;;;;;;;8.31;48.66;102312.16;5020913;27;96958;-80
2023/05/04 00:58:24;;;;;;;2.20;1.50;;;;;;;8.30;48.92;102302.38;5021472;27;97075;-80
2023/05/04 01:00:50;;;;;;;2.23;2.03;;;;;;;8.29;48.76;102309.09;5018017;27;97738;-80
2023/05/04 01:03:16;;;;;;;1.90;1.80;;;;;;;8.28;48.79;102302.06;5019801;27;99008;-80
2023/05/04 01:05:51;;;;;;;2.33;1.83;;;;;;;8.23;48.99;102302.59;5023527;27;97304;-79
2023/05/04 01:08:20;;;;;;;2.40;1.87;;;;;;;8.19;48.86;102299.19;5026616;27;97003;-79
2023/05/04 01:10:55;;;;;;;3.40;2.10;;;;;;;8.19;49.63;102299.19;5032389;27;100542;-80
2023/05/04 01:13:21;;;;;;;3.40;2.00;;;;;;;8.14;48.84;102327.91;5020976;27;99131;-80
2023/05/04 01:15:48;;;;;;;1.90;1.80;;;;;;;8.10;49.15;102291.56;5026113;27;97802;-80
2023/05/04 01:18:13;;;;;;;1.97;1.67;;;;;;;8.06;48.95;102303.88;5018991;27;96863;-79
2023/05/04 01:20:39;;;;;;;1.90;1.80;;;;;;;8.04;49.12;102292.53;5022738;27;97216;-80
2023/05/04 01:23:04;;;;;;;2.67;2.10;;;;;;;7.99;48.95;102309.53;5019476;27;97648;-80
2023/05/04 01:25:35;;;;;;;2.77;2.30;;;;;;;8.00;49.14;102291.88;5024900;27;97378;-79
2023/05/04 01:28:11;;;;;;;5.23;2.17;;;;;;;7.94;49.33;102299.88;5024569;27;97315;-80
2023/05/04 01:30:43;;;;;;;2.80;1.67;;;;;;;7.86;49.32;102287.59;5035675;27;100674;-79
2023/05/04 01:33:09;;;;;;;1.80;1.63;;;;;;;7.83;49.23;102298.63;5022987;27;97379;-79
2023/05/04 01:35:35;;;;;;;2.37;2.23;;;;;;;7.81;49.65;102306.50;5029450;27;96966;-80
2023/05/04 01:38:02;;;;;;;2.60;1.83;;;;;;;7.82;49.39;102303.31;5027910;27;96981;-79
2023/05/04 01:40:27;;;;;;;4.07;2.20;;;;;;;7.78;49.27;102329.28;5023474;27;96714;-80
2023/05/04 01:42:53;;;;;;;2.37;1.97;;;;;;;7.79;49.71;102297.94;5027737;27;100389;-80
2023/05/04 01:45:18;;;;;;;2.40;2.00;;;;;;;7.79;49.73;102306.16;5023202;27;96994;-80
2023/05/04 01:47:44;;;;;;;1.67;1.57;;;;;;;7.80;49.63;102304.97;5024439;27;96952;-79
2023/05/04 01:50:09;;;;;;;1.50;1.40;;;;;;;7.79;49.58;102297.94;5025399;27;98088;-79
2023/05/04 01:52:34;;;;;;;2.30;2.10;;;;;;;7.76;49.73;102307.78;5024580;27;101929;-80
2023/05/04 01:55:00;;;;;;;2.73;1.90;;;;;;;7.78;49.73;102308.13;5025545;27;97156;-80
2023/05/04 01:57:25;;;;;;;3.80;2.20;;;;;;;7.76;49.50;102301.53;5023745;27;97497;-80
2023/05/04 01:59:51;;;;;;;1.83;1.70;;;;;;;7.76;49.62;102310.53;5021409;27;99625;-80
2023/05/04 02:02:16;;;;;;;2.00;1.80;;;;;;;7.77;49.89;102295.66;5021646;27;104339;-80
2023/05/04 02:04:41;;;;;;;3.53;1.63;;;;;;;7.76;49.74;102307.03;5020688;27;97301;-80
2023/05/04 02:07:07;;;;;;;1.90;1.80;;;;;;;7.76;49.81;102305.06;5017355;27;97121;-80
2023/05/04 02:09:32;;;;;;;1.87;1.77;;;;;;;7.75;49.84;102311.75;5025044;27;100013;-80
2023/05/04 02:11:58;;;;;;;4.03;1.80;;;;;;;7.73;49.94;102313.38;5025872;27;100183;-80
2023/05/04 02:14:23;;;;;;;3.33;1.83;;;;;;;7.69;49.93;102299.03;5021713;27;96686;-80
2023/05/04 02:16:48;;;;;;;3.40;1.70;;;;;;;7.68;49.93;102300.19;5022377;27;97167;-80
2023/05/04 02:19:14;;;;;;;2.40;1.70;;;;;;;7.64;49.91;102292.09;5022822;27;96982;-80
2023/05/04 02:21:43;;;;;;;1.60;1.50;;;;;;;7.65;50.38;102292.84;5023667;27;97726;-79
2023/05/04 02:24:08;;;;;;;1.60;1.50;;;;;;;7.64;50.14;102299.53;5027884;27;97028;-80
2023/05/04 02:26:34;;;;;;;1.87;1.63;;;;;;;7.59;50.02;102292.59;5025311;27;97316;-79
2023/05/04 02:29:02;;;;;;;2.60;1.40;;;;;;;7.56;49.86;102280.53;5020736;27;99217;-80
2023/05/04 02:31:28;;;;;;;6.67;1.60;;;;;;;7.52;50.09;102298.25;5024647;28;100153;-79
2023/05/04 02:33:53;;;;;;;2.63;1.70;;;;;;;7.55;50.54;102289.97;5028250;27;97132;-80
2023/05/04 02:36:18;;;;;;;2.60;1.50;;;;;;;7.54;50.36;102277.47;5029589;27;97274;-80
2023/05/04 02:38:43;;;;;;;1.40;1.30;;;;;;;7.55;50.36;102291.94;5025175;27;98332;-80
2023/05/04 02:41:09;;;;;;;4.97;1.90;;;;;;;7.54;50.44;102291.16;5031931;27;98814;-80
2023/05/04 02:43:34;;;;;;;1.67;1.57;;;;;;;7.53;50.26;102286.88;5024266;27;97220;-80
2023/05/04 02:46:00;;;;;;;1.67;1.57;;;;;;;7.53;50.43;102297.81;5030778;27;101475;-80
2023/05/04 02:48:25;;;;;;;2.60;1.30;;;;;;;7.43;50.47;102281.69;5025387;27;100518;-80
2023/05/04 02:50:51;;;;;;;1.90;1.80;;;;;;;7.45;50.42;102290.22;5025256;27;100974;-80
2023/05/04 02:53:16;;;;;;;2.83;1.57;;;;;;;7.45;50.84;102291.00;5028172;27;97114;-80
2023/05/04 02:55:41;;;;;;;1.97;1.27;;;;;;;7.44;50.68;102283.22;5021731;27;97042;-79
2023/05/04 02:58:07;;;;;;;1.77;1.40;;;;;;;7.42;50.63;102280.16;5029216;27;103025;-79
2023/05/04 03:00:32;;;;;;;1.20;1.20;;;;;;;7.35;50.86;102278.38;5021034;27;97460;-80
2023/05/04 03:02:57;;;;;;;1.73;1.30;;;;;;;7.38;50.88;102288.44;5029759;27;97564;-80
2023/05/04 03:05:23;;;;;;;3.63;1.43;;;;;;;7.41;50.79;102282.13;5021462;27;96908;-79
2023/05/04 03:07:49;;;;;;;1.60;1.50;;;;;;;7.39;50.77;102290.00;5025179;27;98460;-79
2023/05/04 03:10:15;;;;;;;1.60;1.50;;;;;;;7.39;50.76;102278.25;5022607;27;99022;-79
2023/05/04 03:12:40;;;;;;;2.60;1.20;;;;;;;7.39;50.98;102264.56;5025257;27;97164;-80
2023/05/04 03:15:06;;;;;;;1.33;0.87;;;;;;;7.34;50.63;102252.16;5020936;27;96889;-80
2023/05/04 03:17:31;;;;;;;1.23;1.10;;;;;;;7.40;50.91;102260.66;5019832;27;99142;-79
2023/05/04 03:19:57;;;;;;;1.43;1.00;;;;;;;7.34;50.93;102271.34;5021784;27;97521;-79
2023/05/04 03:22:22;;;;;;;4.63;1.30;;;;;;;7.34;50.86;102263.13;5021937;27;97363;-80
2023/05/04 03:24:47;;;;;;;2.60;1.10;;;;;;;7.33;50.89;102283.50;5022732;28;97546;-79
2023/05/04 03:27:13;;;;;;;0.90;0.90;;;;;;;7.32;50.94;102268.25;5022727;27;97843;-80
2023/05/04 03:29:38;;;;;;;2.60;1.20;;;;;;;7.33;51.00;102252.63;5025450;27;97042;-79
2023/05/04 03:32:04;;;;;;;1.60;1.40;;;;;;;7.33;50.99;102272.56;5020162;27;97892;-79
2023/05/04 03:34:30;;;;;;;11.40;1.17;;;;;;;7.32;51.28;102268.25;5022059;27;97022;-79
2023/05/04 03:36:56;;;;;;;2.20;1.27;;;;;;;7.31;51.24;102263.22;5026363;27;99244;-80
2023/05/04 03:39:21;;;;;;;1.40;1.20;;;;;;;7.31;51.26;102250.31;5026350;27;99304;-79
2023/05/04 03:41:48;;;;;;;2.20;1.10;;;;;;;7.34;50.98;102256.88;5021748;27;97523;-79
2023/05/04 03:44:13;;;;;;;1.23;0.70;;;;;;;7.34;51.02;102271.34;5018231;27;97036;-80
2023/05/04 03:46:39;;;;;;;1.27;1.00;;;;;;;7.34;51.04;102249.44;5019216;27;97599;-79
2023/05/04 03:49:04;;;;;;;0.90;0.90;;;;;;;7.30;51.06;102253.47;5017055;27;98002;-79
2023/05/04 03:51:29;;;;;;;1.10;1.07;;;;;;;7.28;51.13;102248.44;5017484;27;96867;-79
2023/05/04 03:53:55;;;;;;;3.43;1.33;;;;;;;7.29;51.25;102260.94;5017672;27;97208;-80
2023/05/04 03:56:20;;;;;;;1.73;1.20;;;;;;;7.26;51.37;102255.53;5017252;27;97711;-79
2023/05/04 03:58:46;;;;;;;3.53;1.10;;;;;;;7.26;51.40;102256.31;5017774;27;97996;-79
2023/05/04 04:01:11;;;;;;;0.90;0.80;;;;;;;7.24;51.47;102241.50;5025599;27;97094;-80
2023/05/04 04:03:37;;;;;;;2.90;1.30;;;;;;;7.19;51.43;102236.53;5017425;27;96928;-80
2023/05/04 04:06:04;;;;;;;3.43;1.07;;;;;;;7.29;51.43;102249.19;5020290;27;99716;-80
2023/05/04 04:08:29;;;;;;;1.40;1.10;;;;;;;7.23;51.49;102227.03;5018798;27;97277;-80
2023/05/04 04:10:54;;;;;;;1.10;1.00;;;;;;;7.30;51.56;102250.72;5017597;27;97179;-80
2023/05/04 04:13:20;;;;;;;5.73;1.60;;;;;;;7.31;51.27;102230.38;5023860;27;97544;-79
2023/05/04 04:15:45;;;;;;;2.60;1.10;;;;;;;7.30;51.53;102228.81;5027774;27;100283;-79
2023/05/04 04:18:11;;;;;;;3.00;0.83;;;;;;;7.35;51.17;102231.81;5020209;27;97449;-79
2023/05/04 04:20:36;;;;;;;1.80;1.27;;;;;;;7.35;51.35;102228.31;5021824;27;96786;-79
2023/05/04 04:23:02;;;;;;;1.07;0.93;;;;;;;7.35;51.47;102225.56;5018712;27;99708;-80
2023/05/04 04:25:28;;;;;;;2.03;1.23;;;;;;;7.39;51.37;102248.16;5018664;27;97895;-80
2023/05/04 04:27:54;;;;;;;0.90;0.90;;;;;;;7.39;51.35;102234.47;5017477;27;97747;-80
2023/05/04 04:30:20;;;;;;;2.80;0.80;;;;;;;7.45;51.35;102238.97;5020467;27;97096;-80
2023/05/04 04:32:46;;;;;;;1.83;1.03;;;;;;;7.48;51.39;102229.13;5018052;27;97147;-80
2023/05/04 04:35:12;;;;;;;2.20;1.20;;;;;;;7.49;51.48;102241.63;5018671;27;97412;-79
2023/05/04 04:37:38;;;;;;;1.17;1.07;;;;;;;7.49;51.44;102236.91;5018902;27;102961;-80
2023/05/04 04:40:05;;;;;;;7.40;1.47;;;;;;;7.52;51.53;102229.81;5017854;27;101006;-80
2023/05/04 04:42:31;;;;;;;1.30;1.20;;;;;;;7.53;51.42;102223.88;5021275;27;96951;-80
2023/05/04 04:44:56;;;;;;;2.10;1.00;;;;;;;7.55;51.70;102224.25;5021332;27;97383;-79
2023/05/04 04:47:21;;;;;;;3.40;0.87;;;;;;;7.61;51.38;102253.81;5015769;27;97624;-80
2023/05/04 04:49:47;;;;;;;2.07;1.10;;;;;;;7.66;51.49;102248.59;5014367;27;98490;-80
2023/05/04 04:52:13;;;;;;;1.83;0.97;;;;;;;7.65;51.39;102236.09;5020131;27;97040;-81
2023/05/04 04:54:38;;;;;;;2.30;1.00;;;;;;;7.69;51.58;102230.53;5018045;27;97761;-80
2023/05/04 04:57:03;;;;;;;2.13;1.00;;;;;;;7.73;51.57;102239.41;5022232;27;104501;-81
2023/05/04 04:59:29;;;;;;;4.40;1.50;;;;;;;7.80;51.65;102244.72;5017402;27;97018;-81
2023/05/04 05:01:56;;;;;;;2.20;0.80;;;;;;;7.87;51.56;102244.47;5014736;27;96922;-80
2023/05/04 05:04:22;;;;;;;2.70;1.00;;;;;;;7.92;51.30;102260.41;5016863;27;97225;-80
2023/05/04 05:06:48;;;;;;;1.20;1.10;;;;;;;7.97;51.44;102248.91;5018277;27;97315;-80
2023/05/04 05:09:13;;;;;;;2.70;1.20;;;;;;;7.99;51.67;102246.50;5024186;27;97317;-81
2023/05/04 05:11:39;;;;;;;2.40;1.00;;;;;;;7.99;51.63;102252.75;5013699;27;96706;-80
2023/05/04 05:14:05;;;;;;;1.47;0.90;;;;;;;8.09;51.61;102243.44;5014107;27;97801;-80
2023/05/04 05:16:30;;;;;;;1.07;1.07;;;;;;;8.12;51.68;102261.00;5018332;27;100530;-80
2023/05/04 05:18:56;;;;;;;2.33;1.30;;;;;;;8.16;51.81;102245.22;5019371;27;97246;-81
2023/05/04 05:21:21;;;;;;;2.90;1.10;;;;;;;8.17;52.13;102241.25;5016470;27;97241;-80
2023/05/04 05:23:46;;;;;;;1.20;1.10;;;;;;;8.24;51.93;102241.06;5018180;27;97701;-80
2023/05/04 05:26:12;;;;;;;1.57;0.80;;;;;;;8.36;51.91;102265.00;5015830;27;99734;-80
2023/05/04 05:28:37;;;;;;;2.03;1.20;;;;;;;8.45;51.70;102245.94;5023311;27;97274;-80
2023/05/04 05:31:02;;;;;;;1.60;1.00;;;;;;;8.52;51.92;102251.19;5016179;27;96808;-80
2023/05/04 05:33:28;;;;;;;1.57;1.47;;;;;;;8.57;51.79;102253.38;5016109;27;97510;-80
2023/05/04 05:35:54;;;;;;;1.23;1.13;;;;;;;8.63;51.98;102245.38;5021536;27;99137;-80
2023/05/04 05:38:20;;;;;;;1.83;1.10;;;;;;;8.70;51.75;102256.91;5016506;27;96844;-80
2023/05/04 05:40:47;;;;;;;1.20;0.90;;;;;;;8.81;51.72;102254.59;5018092;27;97215;-80
2023/05/04 05:43:12;;;;;;;5.33;1.43;;;;;;;8.88;51.75;102250.84;5018145;27;99059;-80
2023/05/04 05:45:38;;;;;;;1.87;1.13;;;;;;;8.93;51.88;102253.78;5015265;27;96871;-80
2023/05/04 05:48:03;;;;;;;2.40;1.13;;;;;;;9.06;52.07;102271.00;5019409;27;96826;-80
2023/05/04 05:50:28;;;;;;;2.17;1.10;;;;;;;9.16;51.78;102266.38;5023734;27;97123;-80
2023/05/04 05:52:54;;;;;;;3.57;1.70;;;;;;;9.27;51.82;102261.31;5019589;27;99053;-80
2023/05/04 05:55:19;;;;;;;1.43;1.33;;;;;;;9.39;51.88;102254.25;5018963;27;97100;-80
2023/05/04 05:57:45;;;;;;;2.77;1.17;;;;;;;9.52;51.66;102271.44;5018099;27;97455;-79
2023/05/04 06:00:11;;;;;;;4.83;1.07;;;;;;;9.65;51.68;102252.94;5016718;27;96940;-80
2023/05/04 06:02:36;;;;;;;3.50;1.10;;;;;;;9.75;51.89;102263.53;5034027;27;99274;-80
2023/05/04 06:05:02;;;;;;;2.30;1.13;;;;;;;9.86;51.56;102248.63;5019818;27;98043;-80
2023/05/04 06:07:27;;;;;;;1.43;1.10;;;;;;;9.96;51.58;102255.75;5019518;27;97155;-80
2023/05/04 06:09:53;;;;;;;2.37;1.50;;;;;;;10.03;51.60;102307.72;5026380;27;97422;-80
2023/05/04 06:12:18;;;;;;;2.23;1.23;;;;;;;10.12;51.47;102252.81;5021296;27;99082;-80
2023/05/04 06:14:43;;;;;;;2.80;1.30;;;;;;;10.21;51.48;102255.59;5021236;27;98965;-80
2023/05/04 06:17:09;;;;;;;2.80;1.33;;;;;;;10.29;51.22;102257.63;5022560;27;97295;-80
2023/05/04 06:19:36;;;;;;;2.07;1.40;;;;;;;10.41;51.49;102242.25;5025525;27;99900;-80
2023/05/04 06:22:02;;;;;;;1.03;1.00;;;;;;;10.50;51.27;102253.31;5014404;27;100748;-80
2023/05/04 06:24:28;;;;;;;1.30;1.07;;;;;;;10.63;51.31;102245.72;5017448;27;97087;-80
2023/05/04 06:26:55;;;;;;;3.77;1.30;;;;;;;10.74;51.22;102240.56;5025772;27;97612;-80
2023/05/04 06:29:20;;;;;;;2.77;1.57;;;;;;;10.83;51.28;102248.84;5023448;27;97201;-80
2023/05/04 06:31:46;;;;;;;1.43;1.33;;;;;;;10.88;50.96;102242.72;5027512;27;100304;-80
2023/05/04 06:34:11;;;;;;;3.80;1.67;;;;;;;11.03;51.00;102232.66;5025303;27;99639;-80
2023/05/04 06:36:37;;;;;;;2.40;1.30;;;;;;;11.16;51.20;102241.53;5026981;27;97199;-80
2023/05/04 06:39:02;;;;;;;1.63;1.43;;;;;;;11.30;50.90;102238.19;5022331;27;97355;-80
2023/05/04 06:41:28;;;;;;;1.53;1.10;;;;;;;11.45;50.61;102251.34;5025860;27;104702;-80
2023/05/04 06:43:53;;;;;;;0.90;0.90;;;;;;;11.53;50.70;102239.56;5017082;27;103745;-80
2023/05/04 06:46:18;;;;;;;1.67;1.10;;;;;;;11.70;50.39;102246.34;5021983;27;96856;-80
2023/05/04 06:48:44;;;;;;;3.00;1.70;;;;;;;11.79;50.33;102256.59;5027213;27;97173;-80
2023/05/04 06:51:09;;;;;;;3.00;1.23;;;;;;;11.91;50.33;102261.94;5018713;27;96745;-80
2023/05/04 06:53:35;;;;;;;4.73;1.00;;;;;;;12.07;50.02;102240.75;5021037;27;97651;-80
2023/05/04 06:56:01;;;;;;;2.70;1.10;;;;;;;12.20;50.10;102239.34;5024516;27;96873;-80
2023/05/04 06:58:26;;;;;;;2.10;1.10;;;;;;;12.34;49.86;102251.72;5029656;27;97144;-80
2023/05/04 07:00:52;;;;;;;2.90;1.20;;;;;;;12.44;49.56;102236.63;5025037;27;97520;-80
2023/05/04 07:03:17;;;;;;;4.70;1.07;;;;;;;12.64;49.71;102242.38;5030777;28;99477;-80
2023/05/04 07:05:44;;;;;;;3.27;1.50;;;;;;;12.79;49.43;102232.94;5029890;27;97141;-81
2023/05/04 07:08:11;;;;;;;2.37;1.37;;;;;;;12.91;49.57;102250.50;5029281;27;97138;-80
2023/05/04 07:10:36;;;;;;;4.07;1.20;;;;;;;13.05;49.24;102249.84;5022401;27;97413;-81
2023/05/04 07:13:02;;;;;;;1.00;1.00;;;;;;;13.20;49.20;102238.84;5017830;27;96738;-80
2023/05/04 07:15:27;;;;;;;1.00;0.97;;;;;;;13.28;48.99;102228.97;5020432;27;97042;-81
2023/05/04 07:17:53;;;;;;;2.40;1.30;;;;;;;13.39;48.82;102224.41;5021420;27;97052;-80
2023/05/04 07:20:20;;;;;;;1.97;1.00;;;;;;;13.46;48.45;102226.81;5027259;27;103438;-81
2023/05/04 07:22:45;;;;;;;0.93;0.90;;;;;;;13.58;48.73;102227.78;5020155;27;97174;-80
2023/05/04 07:25:11;;;;;;;3.27;1.20;;;;;;;13.77;48.56;102225.59;5016737;27;97065;-80
2023/05/04 07:27:36;;;;;;;3.23;1.47;;;;;;;13.94;48.37;102232.97;5018815;27;97042;-82
2023/05/04 07:30:05;;;;;;;2.03;1.13;;;;;;;14.05;48.02;102237.91;5024497;27;99205;-83
2023/05/04 07:32:31;;;;;;;4.40;1.20;;;;;;;14.21;48.02;102231.91;5025764;27;100540;-81
2023/05/04 07:34:56;;;;;;;4.30;1.20;;;;;;;14.36;48.01;102221.59;5023508;27;96774;-81
2023/05/04 07:37:21;;;;;;;2.17;1.10;;;;;;;14.48;47.60;102208.69;5024129;27;97050;-79
2023/05/04 07:39:47;;;;;;;2.70;1.13;;;;;;;14.54;47.54;102206.75;5018475;27;99275;-79
2023/05/04 07:42:12;;;;;;;1.70;1.37;;;;;;;14.66;47.45;102209.19;5021904;27;99029;-81
2023/05/04 07:44:38;;;;;;;1.23;1.13;;;;;;;14.84;47.44;102200.63;5023383;27;98160;-81
2023/05/04 07:47:04;;;;;;;1.90;1.10;;;;;;;14.97;47.09;102200.28;5020668;27;97256;-81
2023/05/04 07:49:30;;;;;;;5.13;1.33;;;;;;;15.05;47.01;102201.38;5021925;27;96671;-81
2023/05/04 07:51:55;;;;;;;4.17;1.17;;;;;;;15.20;46.93;102199.28;5018797;27;100678;-82
2023/05/04 07:54:21;;;;;;;1.23;0.87;;;;;;;15.36;47.03;102203.50;5025368;27;97176;-82
2023/05/04 07:56:46;;;;;;;1.20;1.10;;;;;;;15.52;46.68;102200.19;5017329;27;97175;-81
2023/05/04 07:59:11;;;;;;;1.33;0.93;;;;;;;15.60;46.62;102188.16;5018684;27;99090;-82
2023/05/04 08:01:37;;;;;;;2.50;0.93;;;;;;;15.66;46.48;102202.09;5017862;27;97690;-81
2023/05/04 08:04:02;;;;;;;3.07;1.43;;;;;;;15.81;46.57;102191.63;5011666;27;97442;-81
2023/05/04 08:06:27;;;;;;;1.10;0.93;;;;;;;15.88;46.27;102196.72;5016666;27;97240;-82
2023/05/04 08:08:53;;;;;;;2.93;1.20;;;;;;;15.96;46.00;102195.03;5023491;27;99352;-82
2023/05/04 08:11:18;;;;;;;3.07;1.30;;;;;;;16.06;45.97;102190.06;5024098;28;100020;-82
2023/05/04 08:13:45;;;;;;;1.33;0.80;;;;;;;16.21;45.89;102185.88;5022779;27;97068;-82
2023/05/04 08:16:11;;;;;;;2.03;0.97;;;;;;;16.31;45.59;102192.03;5020659;27;97391;-82
2023/05/04 08:18:37;;;;;;;1.43;0.90;;;;;;;16.44;45.07;102190.34;5017111;27;97482;-82
2023/05/04 08:21:02;;;;;;;2.37;0.93;;;;;;;16.57;45.16;102180.84;5021598;27;100244;-79
2023/05/04 08:23:29;;;;;;;2.70;1.30;;;;;;;16.71;45.09;102168.81;5018430;27;97293;-79
2023/05/04 08:25:54;;;;;;;1.40;1.30;;;;;;;16.90;44.84;102187.34;5024263;27;96977;-80
2023/05/04 08:28:20;;;;;;;4.03;1.30;;;;;;;16.96;44.47;102177.00;5019745;27;97667;-80
2023/05/04 08:30:45;;;;;;;2.40;1.30;;;;;;;17.03;44.36;102184.09;5016031;28;97859;-81
2023/05/04 08:33:10;;;;;;;1.33;1.00;;;;;;;17.13;44.23;102196.50;5023817;27;96792;-80
2023/05/04 08:35:36;;;;;;;3.40;1.30;;;;;;;17.17;44.22;102175.53;5023606;27;96977;-82
2023/05/04 08:38:02;;;;;;;2.40;1.00;;;;;;;17.29;44.02;102176.34;5016850;27;99510;-81
2023/05/04 08:40:28;;;;;;;0.97;0.97;;;;;;;17.39;44.11;102174.81;5025235;27;100561;-82
2023/05/04 08:42:53;;;;;;;6.50;1.37;;;;;;;17.51;43.69;102168.06;5022179;27;97602;-82
2023/05/04 08:45:19;;;;;;;1.30;0.90;;;;;;;17.53;43.54;102175.91;5016836;27;97113;-82
2023/05/04 08:47:45;;;;;;;2.57;1.13;;;;;;;17.62;43.59;102162.50;5017209;27;99919;-82
2023/05/04 08:50:11;;;;;;;3.03;1.17;;;;;;;17.76;43.61;102169.84;5019447;27;99699;-81
2023/05/04 08:52:37;;;;;;;2.80;1.03;;;;;;;17.91;43.38;102155.66;5020079;27;97199;-81
2023/05/04 08:55:04;;;;;;;1.47;0.70;;;;;;;18.08;42.99;102169.59;5023343;27;96763;-81
2023/05/04 08:57:30;;;;;;;3.27;1.23;;;;;;;18.21;42.81;102155.91;5022543;27;99496;-81
2023/05/04 08:59:56;;;;;;;1.67;1.20;;;;;;;18.33;42.51;102147.00;5023162;27;100267;-82
2023/05/04 09:02:23;;;;;;;1.53;1.20;;;;;;;18.28;42.17;102155.38;5020926;27;97069;-82
2023/05/04 09:04:50;;;;;;;1.80;1.07;;;;;;;18.35;42.59;102149.28;5018611;27;96866;-82
2023/05/04 09:07:20;;;;;;;1.47;1.00;;;;;;;18.49;42.67;102129.50;5017646;27;97396;-81
2023/05/04 09:09:46;;;;;;;5.40;1.37;;;;;;;18.61;42.25;102130.22;5027994;27;100179;-81
2023/05/04 09:12:12;;;;;;;1.53;1.43;;;;;;;18.71;42.11;102134.25;5018010;27;97500;-82
2023/05/04 09:14:40;;;;;;;4.50;1.33;;;;;;;18.83;42.14;102132.91;5024057;27;97187;-80
2023/05/04 09:17:15;;;;;;;3.10;1.20;;;;;;;18.93;40.80;102131.34;5030626;27;100855;-81
2023/05/04 09:19:42;;;;;;;1.70;1.13;;;;;;;19.01;41.61;102129.53;5016027;27;99909;-81
2023/05/04 09:22:18;;;;;;;3.80;1.20;;;;;;;19.07;39.67;102124.66;5017949;27;97217;-80
2023/05/04 09:24:45;;;;;;;6.00;1.43;;;;;;;19.10;41.10;102132.03;5016448;27;98119;-81
2023/05/04 09:27:12;;;;;;;3.30;1.30;;;;;;;19.11;40.92;102122.34;5017658;27;99894;-81
2023/05/04 09:29:39;;;;;;;2.07;1.03;;;;;;;19.22;41.06;102113.19;5013829;27;97223;-81
2023/05/04 09:32:09;;;;;;;4.10;1.30;;;;;;;19.30;39.95;102117.69;5016990;27;97190;-82
2023/05/04 09:34:36;;;;;;;3.00;1.20;;;;;;;19.35;40.50;102111.31;5012308;27;97583;-82
2023/05/04 09:37:02;;;;;;;1.13;1.10;;;;;;;19.40;40.15;102110.53;5021706;27;96720;-81
2023/05/04 09:39:29;;;;;;;3.10;1.27;;;;;;;19.43;40.26;102117.88;5021402;27;97170;-82
2023/05/04 09:41:55;;;;;;;3.20;1.17;;;;;;;19.57;40.13;102118.03;5027234;27;97088;-81
2023/05/04 09:44:22;;;;;;;1.43;1.20;;;;;;;19.72;40.37;102121.97;5020877;27;96799;-81
2023/05/04 09:46:55;;;;;;;4.03;1.17;;;;;;;19.88;38.26;102107.09;5020695;27;97260;-80
2023/05/04 09:49:31;;;;;;;2.50;1.20;;;;;;;19.90;38.30;102109.34;5026366;27;99028;-82
2023/05/04 09:51:58;;;;;;;1.50;1.20;;;;;;;19.97;39.37;102111.56;5021416;27;97301;-82
2023/05/04 09:54:25;;;;;;;2.10;0.90;;;;;;;20.05;39.56;102115.31;5025453;27;100834;-81
2023/05/04 09:56:55;;;;;;;3.77;1.17;;;;;;;20.15;38.85;102108.09;5021660;27;97402;-81
2023/05/04 09:59:25;;;;;;;2.17;1.30;;;;;;;20.25;39.18;102095.28;5036742;27;99284;-82
2023/05/04 10:01:51;;;;;;;2.90;1.07;;;;;;;20.39;38.84;102098.94;5018671;27;97354;-81
2023/05/04 10:04:17;;;;;;;2.77;1.10;;;;;;;20.48;39.01;102098.59;5018754;27;97498;-82
2023/05/04 10:06:43;;;;;;;1.43;1.07;;;;;;;20.57;38.66;102095.44;5020077;27;97755;-82
2023/05/04 10:09:10;;;;;;;1.37;1.27;;;;;;;20.74;38.89;102105.13;5021206;27;97219;-81
2023/05/04 10:11:36;;;;;;;2.10;1.07;;;;;;;20.82;38.53;102102.47;5026113;27;96762;-82
2023/05/04 10:14:02;;;;;;;2.43;1.30;;;;;;;20.83;38.13;102095.59;5019128;27;97153;-82
2023/05/04 10:16:54;;;;;;;2.90;1.20;;;;;;;20.78;36.80;102093.63;5020943;27;99988;-81
2023/05/04 10:19:35;;;;;;;3.60;1.20;;;;;;;20.73;37.82;102086.06;5017299;27;99439;-82
2023/05/04 10:22:18;;;;;;;2.47;1.13;;;;;;;20.79;37.64;102079.09;5019621;28;96832;-82
2023/05/04 10:24:56;;;;;;;3.37;1.17;;;;;;;20.82;36.28;102083.66;5023757;27;96673;-81
2023/05/04 10:27:41;;;;;;;3.80;1.43;;;;;;;20.84;36.53;102078.28;5026400;27;99526;-81
2023/05/04 10:30:07;;;;;;;5.57;1.10;;;;;;;20.85;37.81;102077.00;5018953;27;99014;-81
2023/05/04 10:32:38;;;;;;;2.53;1.07;;;;;;;20.92;37.66;102070.78;5017757;27;96842;-82
2023/05/04 10:35:08;;;;;;;2.83;1.20;;;;;;;20.99;37.72;102083.41;5017708;27;96955;-80
2023/05/04 10:37:36;;;;;;;2.17;1.67;;;;;;;20.88;37.29;102066.78;5018719;27;98262;-82
2023/05/04 10:40:04;;;;;;;1.77;1.67;;;;;;;20.90;37.51;102055.81;5026141;27;99235;-81
2023/05/04 10:42:40;;;;;;;1.73;1.27;;;;;;;21.07;36.86;102072.38;5022402;27;96925;-82
2023/05/04 10:45:08;;;;;;;1.67;0.97;;;;;;;21.22;37.33;102069.88;5016551;27;97166;-81
2023/05/04 10:47:36;;;;;;;3.10;1.10;;;;;;;21.41;37.27;102071.34;5020772;27;97915;-82
2023/05/04 10:50:06;;;;;;;1.17;1.07;;;;;;;21.61;36.43;102047.56;5022239;27;99602;-83
2023/05/04 10:52:43;;;;;;;2.20;1.50;;;;;;;21.85;36.69;102044.63;5017550;27;97344;-81
2023/05/04 10:55:09;;;;;;;1.33;0.90;;;;;;;22.07;36.58;102044.19;5018709;27;97114;-81
2023/05/04 10:57:45;;;;;;;2.50;1.10;;;;;;;22.10;35.16;102034.72;5018352;27;100626;-82
2023/05/04 11:00:12;;;;;;;1.20;1.10;;;;;;;22.27;35.98;102051.19;5017126;27;97421;-82
2023/05/04 11:02:39;;;;;;;3.10;1.27;;;;;;;22.31;35.44;102032.75;5019804;27;97358;-81
2023/05/04 11:05:08;;;;;;;2.13;1.37;;;;;;;22.15;35.10;102027.47;5019572;27;98274;-82
2023/05/04 11:07:38;;;;;;;1.80;0.93;;;;;;;22.29;34.94;102018.50;5025043;27;100873;-82
2023/05/04 11:10:18;;;;;;;2.60;1.00;;;;;;;22.53;34.13;102008.31;5017877;27;99351;-82
2023/05/04 11:12:44;;;;;;;2.60;1.30;;;;;;;22.65;35.22;102020.84;5016867;27;97299;-82
2023/05/04 11:15:10;;;;;;;3.53;1.30;;;;;;;22.71;34.82;102005.38;5017498;27;96917;-81
2023/05/04 11:17:49;;;;;;;2.47;1.23;;;;;;;22.84;32.69;101987.72;5020731;27;98254;-81
2023/05/04 11:20:27;;;;;;;1.83;1.50;;;;;;;22.86;30.99;101996.34;5023055;27;97399;-83
2023/05/04 11:22:53;;;;;;;4.83;1.33;;;;;;;22.85;34.39;101998.41;5015895;27;97310;-82
2023/05/04 11:25:29;;;;;;;1.20;1.10;;;;;;;22.86;32.71;102004.78;5025127;27;97301;-83